createdAt,value
2022-12-06T00:00:28.113Z,5.3
2022-12-06T00:01:31.380Z,5.3
2022-12-06T00:02:34.904Z,5.2
2022-12-06T00:03:38.089Z,5.3
2022-12-06T00:04:42.044Z,5.3
2022-12-06T00:05:47.447Z,5.3
2022-12-06T00:06:50.333Z,5.3
2022-12-06T00:07:54.164Z,5.3
2022-12-06T00:08:57.577Z,5.3
2022-12-06T00:10:01.760Z,5.3
2022-12-06T00:11:04.885Z,5.3
2022-12-06T00:12:06.544Z,5.3
2022-12-06T00:13:09.562Z,5.3
2022-12-06T00:14:12.378Z,5.3
2022-12-06T00:15:14.789Z,5.3
2022-12-06T00:16:18.175Z,5.3
2022-12-06T00:17:21.833Z,5.3
2022-12-06T00:18:24.591Z,5.3
2022-12-06T00:19:27.582Z,5.3
2022-12-06T00:20:31.410Z,5.3
2022-12-06T00:21:34.871Z,5.3
2022-12-06T00:22:37.016Z,5.3
2022-12-06T00:23:39.986Z,5.3
2022-12-06T00:24:43.127Z,5.3
2022-12-06T00:25:45.900Z,5.3
2022-12-06T00:26:49.237Z,5.3
2022-12-06T00:27:51.959Z,5.3
2022-12-06T00:28:54.735Z,5.3
2022-12-06T00:29:58.711Z,5.3
2022-12-06T00:31:03.023Z,5.3
2022-12-06T00:32:06.435Z,5.3
2022-12-06T00:33:09.614Z,5.3
2022-12-06T00:34:13.316Z,5.3
2022-12-06T00:35:16.439Z,5.3
2022-12-06T00:36:20.483Z,5.3
2022-12-06T00:37:23.291Z,5.3
2022-12-06T00:38:26.274Z,5.3
2022-12-06T00:39:29.326Z,5.3
2022-12-06T00:40:32.480Z,5.3
2022-12-06T00:41:35.197Z,5.3
2022-12-06T00:42:38.804Z,5.3
2022-12-06T00:43:42.339Z,5.3
2022-12-06T00:44:45.318Z,5.3
2022-12-06T00:45:47.742Z,5.3
2022-12-06T00:46:50.770Z,5.3
2022-12-06T00:47:53.349Z,5.3
2022-12-06T00:48:55.494Z,5.3
2022-12-06T00:50:00.407Z,5.3
2022-12-06T00:51:03.744Z,5.3
2022-12-06T00:52:07.500Z,5.3
2022-12-06T00:53:10.567Z,5.3
2022-12-06T00:54:13.539Z,5.2
2022-12-06T00:55:16.517Z,5.3
2022-12-06T00:56:19.370Z,5.3
2022-12-06T00:57:22.068Z,5.3
2022-12-06T00:58:25.393Z,5.3
2022-12-06T00:59:27.901Z,5.3
2022-12-06T01:00:30.393Z,5.3
2022-12-06T01:01:33.623Z,5.3
2022-12-06T01:02:36.620Z,5.3
2022-12-06T01:03:39.944Z,5.3
2022-12-06T01:04:43.603Z,5.3
2022-12-06T01:05:46.455Z,5.3
2022-12-06T01:06:49.782Z,5.3
2022-12-06T01:07:53.287Z,5.3
2022-12-06T01:08:56.891Z,5.3
2022-12-06T01:10:00.077Z,5.3
2022-12-06T01:11:04.434Z,5.3
2022-12-06T01:12:07.231Z,5.3
2022-12-06T01:13:10.441Z,5.3
2022-12-06T01:14:13.768Z,5.3
2022-12-06T01:15:17.091Z,5.3
2022-12-06T01:16:19.996Z,5.3
2022-12-06T01:17:22.900Z,5.3
2022-12-06T01:18:24.761Z,5.3
2022-12-06T01:19:28.199Z,5.3
2022-12-06T01:20:31.093Z,5.3
2022-12-06T01:21:33.854Z,5.3
2022-12-06T01:22:36.727Z,5.3
2022-12-06T01:23:40.223Z,5.3
2022-12-06T01:24:43.214Z,5.3
2022-12-06T01:25:45.633Z,5.3
2022-12-06T01:26:48.887Z,5.3
2022-12-06T01:27:51.033Z,5.3
2022-12-06T01:28:54.733Z,5.3
2022-12-06T01:29:59.040Z,5.3
2022-12-06T01:31:04.119Z,5.3
2022-12-06T01:32:07.217Z,5.3
2022-12-06T01:33:09.639Z,5.3
2022-12-06T01:34:13.043Z,5.3
2022-12-06T01:35:16.020Z,5.3
2022-12-06T01:36:18.992Z,5.3
2022-12-06T01:37:21.612Z,5.3
2022-12-06T01:38:24.103Z,5.3
2022-12-06T01:39:27.594Z,5.3
2022-12-06T01:40:30.590Z,5.3
2022-12-06T01:41:33.365Z,5.3
2022-12-06T01:42:36.449Z,5.2
2022-12-06T01:43:39.329Z,5.2
2022-12-06T01:44:42.326Z,5.2
2022-12-06T01:45:45.147Z,5.2
2022-12-06T01:46:48.553Z,5.2
2022-12-06T01:47:52.233Z,5.2
2022-12-06T01:48:55.380Z,5.2
2022-12-06T01:49:59.895Z,5.2
2022-12-06T01:51:03.477Z,5.2
2022-12-06T01:52:05.714Z,5.2
2022-12-06T01:53:08.843Z,5.2
2022-12-06T01:54:11.140Z,5.2
2022-12-06T01:55:15.185Z,5.2
2022-12-06T01:56:18.942Z,5.2
2022-12-06T01:57:21.997Z,5.2
2022-12-06T01:58:25.619Z,5.2
2022-12-06T01:59:28.601Z,5.2
2022-12-06T02:00:31.092Z,5.2
2022-12-06T02:01:34.309Z,5.2
2022-12-06T02:02:37.576Z,5.2
2022-12-06T02:03:41.136Z,5.2
2022-12-06T02:04:43.914Z,5.2
2022-12-06T02:05:46.965Z,5.2
2022-12-06T02:06:49.744Z,5.2
2022-12-06T02:07:52.737Z,5.2
2022-12-06T02:08:55.903Z,5.2
2022-12-06T02:09:59.862Z,5.2
2022-12-06T02:11:04.865Z,5.2
2022-12-06T02:12:07.674Z,5.2
2022-12-06T02:13:10.654Z,5.2
2022-12-06T02:14:13.353Z,5.2
2022-12-06T02:15:16.209Z,5.2
2022-12-06T02:16:19.467Z,5.2
2022-12-06T02:17:22.528Z,5.2
2022-12-06T02:18:25.585Z,5.2
2022-12-06T02:19:29.217Z,5.2
2022-12-06T02:20:32.093Z,5.2
2022-12-06T02:21:35.182Z,5.2
2022-12-06T02:22:38.336Z,5.2
2022-12-06T02:23:40.475Z,5.2
2022-12-06T02:24:43.961Z,5.2
2022-12-06T02:25:46.801Z,5.2
2022-12-06T02:26:50.282Z,5.2
2022-12-06T02:27:52.714Z,5.2
2022-12-06T02:28:55.691Z,5.2
2022-12-06T02:29:59.358Z,5.2
2022-12-06T02:31:03.754Z,5.2
2022-12-06T02:32:06.859Z,5.2
2022-12-06T02:33:10.261Z,5.2
2022-12-06T02:34:13.417Z,5.2
2022-12-06T02:35:16.403Z,5.2
2022-12-06T02:36:19.106Z,5.2
2022-12-06T02:37:22.163Z,5.2
2022-12-06T02:38:24.727Z,5.2
2022-12-06T02:39:27.887Z,5.2
2022-12-06T02:40:30.918Z,5.2
2022-12-06T02:41:34.171Z,5.2
2022-12-06T02:42:38.272Z,5.2
2022-12-06T02:43:41.353Z,5.2
2022-12-06T02:44:43.845Z,5.2
2022-12-06T02:45:47.527Z,5.2
2022-12-06T02:46:50.236Z,5.2
2022-12-06T02:47:53.287Z,5.2
2022-12-06T02:48:56.065Z,5.2
2022-12-06T02:50:00.024Z,5.2
2022-12-06T02:51:04.190Z,5.1
2022-12-06T02:52:07.006Z,5.1
2022-12-06T02:53:09.506Z,5.1
2022-12-06T02:54:11.999Z,5.1
2022-12-06T02:55:15.479Z,5.1
2022-12-06T02:56:18.519Z,5.1
2022-12-06T02:57:21.017Z,5.1
2022-12-06T02:58:24.770Z,5.1
2022-12-06T02:59:27.628Z,5.1
2022-12-06T03:00:30.606Z,5.1
2022-12-06T03:01:34.227Z,5.1
2022-12-06T03:02:37.446Z,5.1
2022-12-06T03:03:40.397Z,5.1
2022-12-06T03:04:43.450Z,5.1
2022-12-06T03:05:46.509Z,5.2
2022-12-06T03:06:49.481Z,5.2
2022-12-06T03:07:52.489Z,5.2
2022-12-06T03:08:56.143Z,5.2
2022-12-06T03:10:00.388Z,5.2
2022-12-06T03:11:04.490Z,5.2
2022-12-06T03:12:07.426Z,5.2
2022-12-06T03:13:10.411Z,5.2
2022-12-06T03:14:15.612Z,5.2
2022-12-06T03:15:18.772Z,5.2
2022-12-06T03:16:21.385Z,5.2
2022-12-06T03:17:24.377Z,5.2
2022-12-06T03:18:27.433Z,5.2
2022-12-06T03:19:29.655Z,5.2
2022-12-06T03:20:32.741Z,5.2
2022-12-06T03:21:36.101Z,5.2
2022-12-06T03:22:41.226Z,5.2
2022-12-06T03:23:43.726Z,5.2
2022-12-06T03:24:47.065Z,5.2
2022-12-06T03:25:49.917Z,5.2
2022-12-06T03:26:52.701Z,5.2
2022-12-06T03:27:55.262Z,5.2
2022-12-06T03:28:58.885Z,5.2
2022-12-06T03:30:03.344Z,5.2
2022-12-06T03:31:06.742Z,5.2
2022-12-06T03:32:10.311Z,5.2
2022-12-06T03:33:14.079Z,5.2
2022-12-06T03:34:17.207Z,5.2
2022-12-06T03:35:19.519Z,5.2
2022-12-06T03:36:22.946Z,5.2
2022-12-06T03:37:26.272Z,5.2
2022-12-06T03:38:29.329Z,5.2
2022-12-06T03:39:32.151Z,5.2
2022-12-06T03:40:35.003Z,5.2
2022-12-06T03:41:38.253Z,5.2
2022-12-06T03:42:40.815Z,5.2
2022-12-06T03:43:44.255Z,5.2
2022-12-06T03:44:47.395Z,5.2
2022-12-06T03:45:50.757Z,5.2
2022-12-06T03:46:54.898Z,5.2
2022-12-06T03:47:58.069Z,5.2
2022-12-06T03:49:00.555Z,5.2
2022-12-06T03:50:03.938Z,5.2
2022-12-06T03:51:06.722Z,5.2
2022-12-06T03:52:08.581Z,5.2
2022-12-06T03:53:11.363Z,5.2
2022-12-06T03:54:13.796Z,5.2
2022-12-06T03:55:17.516Z,5.2
2022-12-06T03:56:20.754Z,5.2
2022-12-06T03:57:23.836Z,5.2
2022-12-06T03:58:26.689Z,5.2
2022-12-06T03:59:30.068Z,5.2
2022-12-06T04:00:32.905Z,5.3
2022-12-06T04:01:36.801Z,5.2
2022-12-06T04:02:40.192Z,5.3
2022-12-06T04:03:43.686Z,5.2
2022-12-06T04:04:46.484Z,5.3
2022-12-06T04:05:48.342Z,5.3
2022-12-06T04:06:51.397Z,5.3
2022-12-06T04:07:53.885Z,5.3
2022-12-06T04:08:57.175Z,5.3
2022-12-06T04:10:01.754Z,5.3
2022-12-06T04:11:05.152Z,5.3
2022-12-06T04:12:07.870Z,5.3
2022-12-06T04:13:19.409Z,5.2
2022-12-06T04:14:22.136Z,5.2
2022-12-06T04:15:25.600Z,5.2
2022-12-06T04:16:28.870Z,5.2
2022-12-06T04:17:32.721Z,5.2
2022-12-06T04:18:35.702Z,5.2
2022-12-06T04:19:38.759Z,5.2
2022-12-06T04:20:40.621Z,5.2
2022-12-06T04:21:43.396Z,5.2
2022-12-06T04:22:45.887Z,5.2
2022-12-06T04:23:49.594Z,5.2
2022-12-06T04:24:52.567Z,5.2
2022-12-06T04:25:55.265Z,5.2
2022-12-06T04:26:58.587Z,5.2
2022-12-06T04:28:01.353Z,5.2
2022-12-06T04:29:04.143Z,5.2
2022-12-06T04:30:07.611Z,5.2
2022-12-06T04:31:10.306Z,5.2
2022-12-06T04:32:19.023Z,5.2
2022-12-06T04:33:23.066Z,5.2
2022-12-06T04:34:26.422Z,5.2
2022-12-06T04:35:29.183Z,5.3
2022-12-06T04:36:31.883Z,5.3
2022-12-06T04:37:35.221Z,5.3
2022-12-06T04:38:38.082Z,5.3
2022-12-06T04:39:40.782Z,5.3
2022-12-06T04:40:43.275Z,5.3
2022-12-06T04:41:45.967Z,5.3
2022-12-06T04:42:48.190Z,5.3
2022-12-06T04:43:51.164Z,5.3
2022-12-06T04:44:54.223Z,5.3
2022-12-06T04:45:56.638Z,5.3
2022-12-06T04:46:59.761Z,5.3
2022-12-06T04:48:03.322Z,5.3
2022-12-06T04:49:06.255Z,5.3
2022-12-06T04:50:10.025Z,5.3
2022-12-06T04:51:12.600Z,5.3
2022-12-06T04:52:15.780Z,5.3
2022-12-06T04:53:18.480Z,5.4
2022-12-06T04:54:21.921Z,5.4
2022-12-06T04:55:24.927Z,5.4
2022-12-06T04:56:28.185Z,5.4
2022-12-06T04:57:30.951Z,5.4
2022-12-06T04:58:33.862Z,5.4
2022-12-06T04:59:37.571Z,5.4
2022-12-06T05:00:41.368Z,5.4
2022-12-06T05:01:44.353Z,5.4
2022-12-06T05:02:47.533Z,5.4
2022-12-06T05:03:50.701Z,5.4
2022-12-06T05:04:54.693Z,5.4
2022-12-06T05:05:57.555Z,5.4
2022-12-06T05:07:00.625Z,5.4
2022-12-06T05:08:04.614Z,5.4
2022-12-06T05:09:08.465Z,5.4
2022-12-06T05:10:11.236Z,5.4
2022-12-06T05:11:13.936Z,5.4
2022-12-06T05:12:16.631Z,5.4
2022-12-06T05:13:19.686Z,5.4
2022-12-06T05:14:21.974Z,5.4
2022-12-06T05:15:30.030Z,5.4
2022-12-06T05:16:33.451Z,5.3
2022-12-06T05:17:35.951Z,5.4
2022-12-06T05:18:39.716Z,5.4
2022-12-06T05:19:42.696Z,5.3
2022-12-06T05:20:46.717Z,5.4
2022-12-06T05:21:49.837Z,5.3
2022-12-06T05:22:53.544Z,5.4
2022-12-06T05:23:56.394Z,5.3
2022-12-06T05:24:59.655Z,5.3
2022-12-06T05:26:02.712Z,5.3
2022-12-06T05:27:06.347Z,5.3
2022-12-06T05:28:08.567Z,5.3
2022-12-06T05:29:11.374Z,5.3
2022-12-06T05:30:13.872Z,5.3
2022-12-06T05:31:17.000Z,5.3
2022-12-06T05:32:20.021Z,5.3
2022-12-06T05:33:23.096Z,5.3
2022-12-06T05:34:27.126Z,5.3
2022-12-06T05:35:29.826Z,5.3
2022-12-06T05:36:33.922Z,5.3
2022-12-06T05:37:36.977Z,5.3
2022-12-06T05:38:40.028Z,5.3
2022-12-06T05:39:43.008Z,5.3
2022-12-06T05:40:45.710Z,5.3
2022-12-06T05:41:48.585Z,5.3
2022-12-06T05:42:51.289Z,5.3
2022-12-06T05:43:53.985Z,5.3
2022-12-06T05:44:56.459Z,5.3
2022-12-06T05:46:00.103Z,5.3
2022-12-06T05:47:03.694Z,5.3
2022-12-06T05:48:06.829Z,5.3
2022-12-06T05:49:10.225Z,5.4
2022-12-06T05:50:14.001Z,5.3
2022-12-06T05:51:17.502Z,5.3
2022-12-06T05:52:20.437Z,5.3
2022-12-06T05:53:23.666Z,5.3
2022-12-06T05:54:26.366Z,5.3
2022-12-06T05:55:29.216Z,5.4
2022-12-06T05:56:32.291Z,5.4
2022-12-06T05:57:35.418Z,5.4
2022-12-06T05:58:38.290Z,5.4
2022-12-06T05:59:41.275Z,5.4
2022-12-06T06:00:43.609Z,5.4
2022-12-06T06:01:46.385Z,5.4
2022-12-06T06:02:50.127Z,5.4
2022-12-06T06:03:53.899Z,5.4
2022-12-06T06:04:57.534Z,5.4
2022-12-06T06:06:00.669Z,5.4
2022-12-06T06:07:03.368Z,5.4
2022-12-06T06:08:07.100Z,5.4
2022-12-06T06:09:10.394Z,5.4
2022-12-06T06:10:13.161Z,5.4
2022-12-06T06:11:16.134Z,5.4
2022-12-06T06:12:18.907Z,5.4
2022-12-06T06:13:21.679Z,5.4
2022-12-06T06:14:24.233Z,5.4
2022-12-06T06:15:26.994Z,5.4
2022-12-06T06:16:30.623Z,5.4
2022-12-06T06:17:32.775Z,5.4
2022-12-06T06:18:35.477Z,5.4
2022-12-06T06:19:38.250Z,5.4
2022-12-06T06:20:41.023Z,5.4
2022-12-06T06:21:44.140Z,5.4
2022-12-06T06:22:46.838Z,5.4
2022-12-06T06:23:50.885Z,5.4
2022-12-06T06:24:54.254Z,5.4
2022-12-06T06:25:57.022Z,5.4
2022-12-06T06:26:59.793Z,5.4
2022-12-06T06:28:02.285Z,5.4
2022-12-06T06:29:05.272Z,5.4
2022-12-06T06:30:07.861Z,5.4
2022-12-06T06:31:10.623Z,5.4
2022-12-06T06:32:13.402Z,5.4
2022-12-06T06:33:16.318Z,5.4
2022-12-06T06:34:19.122Z,5.4
2022-12-06T06:35:21.998Z,5.4
2022-12-06T06:36:25.434Z,5.4
2022-12-06T06:37:28.823Z,5.4
2022-12-06T06:38:32.058Z,5.4
2022-12-06T06:39:35.827Z,5.4
2022-12-06T06:40:38.887Z,5.4
2022-12-06T06:41:42.883Z,5.4
2022-12-06T06:42:45.766Z,5.4
2022-12-06T06:43:49.092Z,5.4
2022-12-06T06:44:51.234Z,5.4
2022-12-06T06:45:54.376Z,5.4
2022-12-06T06:46:58.467Z,5.4
2022-12-06T06:48:00.887Z,5.4
2022-12-06T06:49:03.428Z,5.4
2022-12-06T06:50:06.397Z,5.4
2022-12-06T06:51:08.814Z,5.4
2022-12-06T06:52:11.337Z,5.4
2022-12-06T06:53:14.589Z,5.4
2022-12-06T06:54:17.373Z,5.5
2022-12-06T06:55:21.227Z,5.4
2022-12-06T06:56:24.573Z,5.4
2022-12-06T06:57:27.693Z,5.4
2022-12-06T06:58:30.185Z,5.4
2022-12-06T06:59:33.789Z,5.4
2022-12-06T07:00:37.230Z,5.4
2022-12-06T07:01:41.246Z,5.4
2022-12-06T07:02:44.589Z,5.4
2022-12-06T07:03:47.717Z,5.4
2022-12-06T07:04:50.577Z,5.4
2022-12-06T07:05:53.635Z,5.4
2022-12-06T07:06:56.964Z,5.4
2022-12-06T07:08:00.306Z,5.4
2022-12-06T07:09:03.558Z,5.4
2022-12-06T07:10:06.695Z,5.4
2022-12-06T07:11:10.232Z,5.4
2022-12-06T07:12:13.617Z,5.4
2022-12-06T07:13:17.224Z,5.4
2022-12-06T07:14:19.715Z,5.4
2022-12-06T07:15:22.125Z,5.5
2022-12-06T07:16:25.566Z,5.4
2022-12-06T07:17:28.558Z,5.5
2022-12-06T07:18:31.735Z,5.5
2022-12-06T07:19:34.959Z,5.5
2022-12-06T07:20:38.078Z,5.5
2022-12-06T07:21:41.280Z,5.5
2022-12-06T07:22:43.788Z,5.5
2022-12-06T07:23:47.219Z,5.5
2022-12-06T07:24:53.461Z,5.5
2022-12-06T07:25:56.487Z,5.5
2022-12-06T07:26:59.774Z,5.6
2022-12-06T07:28:03.420Z,5.6
2022-12-06T07:29:07.136Z,5.6
2022-12-06T07:30:18.866Z,5.6
2022-12-06T07:31:30.501Z,5.6
2022-12-06T07:32:34.073Z,5.6
2022-12-06T07:33:36.955Z,5.6
2022-12-06T07:34:40.389Z,5.6
2022-12-06T07:36:14.421Z,5.6
2022-12-06T07:37:17.643Z,5.6
2022-12-06T07:38:20.456Z,5.6
2022-12-06T07:39:23.251Z,5.7
2022-12-06T07:41:05.402Z,5.7
2022-12-06T07:42:09.021Z,5.6
2022-12-06T07:43:11.523Z,5.7
2022-12-06T07:44:14.595Z,5.7
2022-12-06T07:45:17.301Z,5.6
2022-12-06T07:46:20.510Z,5.6
2022-12-06T07:47:24.057Z,5.7
2022-12-06T07:48:27.485Z,5.6
2022-12-06T07:49:30.462Z,5.7
2022-12-06T07:50:33.854Z,5.6
2022-12-06T07:51:36.930Z,5.7
2022-12-06T07:52:40.191Z,5.7
2022-12-06T07:53:43.015Z,5.7
2022-12-06T07:54:45.994Z,5.7
2022-12-06T07:55:49.465Z,5.7
2022-12-06T07:56:52.651Z,5.7
2022-12-06T07:57:56.421Z,5.7
2022-12-06T07:58:59.855Z,5.7
2022-12-06T08:00:03.559Z,5.7
2022-12-06T08:01:06.699Z,5.7
2022-12-06T08:02:09.841Z,5.7
2022-12-06T08:03:12.920Z,5.7
2022-12-06T08:04:15.672Z,5.7
2022-12-06T08:05:18.830Z,5.7
2022-12-06T08:06:22.583Z,5.7
2022-12-06T08:07:25.768Z,5.7
2022-12-06T08:08:30.116Z,5.7
2022-12-06T08:09:33.095Z,5.7
2022-12-06T08:10:36.245Z,5.8
2022-12-06T08:11:39.244Z,5.8
2022-12-06T08:12:42.869Z,5.8
2022-12-06T08:13:46.098Z,5.8
2022-12-06T08:14:49.152Z,5.8
2022-12-06T08:15:51.719Z,5.8
2022-12-06T08:16:55.285Z,5.8
2022-12-06T08:17:58.622Z,5.8
2022-12-06T08:19:01.777Z,5.8
2022-12-06T08:20:05.296Z,5.8
2022-12-06T08:21:08.620Z,5.8
2022-12-06T08:22:11.316Z,5.8
2022-12-06T08:23:14.682Z,5.8
2022-12-06T08:24:18.121Z,5.8
2022-12-06T08:25:21.586Z,5.8
2022-12-06T08:26:24.432Z,5.9
2022-12-06T08:27:27.819Z,5.9
2022-12-06T08:28:30.542Z,5.8
2022-12-06T08:29:34.374Z,5.8
2022-12-06T08:30:38.126Z,5.9
2022-12-06T08:31:41.936Z,5.9
2022-12-06T08:32:46.038Z,5.9
2022-12-06T08:33:48.535Z,5.9
2022-12-06T08:34:52.539Z,5.9
2022-12-06T08:35:56.242Z,5.9
2022-12-06T08:37:04.422Z,5.9
2022-12-06T08:38:07.474Z,5.9
2022-12-06T08:39:10.450Z,5.9
2022-12-06T08:40:12.672Z,5.9
2022-12-06T08:41:15.486Z,5.9
2022-12-06T08:42:26.007Z,5.9
2022-12-06T08:43:29.667Z,5.9
2022-12-06T08:44:32.740Z,5.9
2022-12-06T08:45:36.881Z,5.9
2022-12-06T08:46:40.200Z,5.9
2022-12-06T08:47:43.392Z,5.9
2022-12-06T08:48:46.187Z,5.9
2022-12-06T08:49:49.308Z,5.9
2022-12-06T08:50:51.892Z,5.9
2022-12-06T08:51:55.026Z,5.9
2022-12-06T08:52:58.455Z,5.9
2022-12-06T08:54:01.968Z,5.9
2022-12-06T08:55:05.402Z,5.9
2022-12-06T08:56:07.624Z,6
2022-12-06T08:57:11.301Z,6
2022-12-06T08:58:14.151Z,6
2022-12-06T08:59:17.622Z,6
2022-12-06T09:00:20.681Z,6
2022-12-06T09:01:24.561Z,6
2022-12-06T09:02:27.614Z,6.1
2022-12-06T09:03:31.014Z,6.1
2022-12-06T09:04:34.134Z,6.1
2022-12-06T09:05:37.693Z,6.2
2022-12-06T09:06:40.409Z,6.2
2022-12-06T09:07:43.705Z,6.2
2022-12-06T09:08:46.878Z,6.2
2022-12-06T09:09:49.962Z,6.2
2022-12-06T09:10:52.734Z,6.3
2022-12-06T09:11:55.226Z,6.3
2022-12-06T09:12:58.002Z,6.3
2022-12-06T09:14:00.698Z,6.3
2022-12-06T09:15:04.103Z,6.3
2022-12-06T09:16:07.645Z,6.4
2022-12-06T09:17:11.122Z,6.3
2022-12-06T09:18:14.261Z,6.4
2022-12-06T09:19:16.967Z,6.4
2022-12-06T09:20:20.516Z,6.4
2022-12-06T09:21:23.017Z,6.4
2022-12-06T09:22:26.341Z,6.4
2022-12-06T09:23:29.129Z,6.4
2022-12-06T09:24:31.966Z,6.4
2022-12-06T09:25:35.096Z,6.4
2022-12-06T09:26:38.159Z,6.4
2022-12-06T09:27:41.519Z,6.4
2022-12-06T09:28:44.497Z,6.5
2022-12-06T09:29:47.847Z,6.5
2022-12-06T09:30:51.003Z,6.5
2022-12-06T09:31:54.247Z,6.5
2022-12-06T09:32:58.062Z,6.5
2022-12-06T09:34:01.129Z,6.5
2022-12-06T09:35:04.552Z,6.5
2022-12-06T09:36:18.016Z,6.5
2022-12-06T09:37:21.084Z,6.5
2022-12-06T09:38:23.860Z,6.5
2022-12-06T09:39:26.358Z,6.6
2022-12-06T09:40:28.500Z,6.5
2022-12-06T09:41:31.945Z,6.5
2022-12-06T09:42:35.577Z,6.5
2022-12-06T09:43:38.474Z,6.6
2022-12-06T09:44:41.520Z,6.6
2022-12-06T09:45:44.952Z,6.6
2022-12-06T09:46:48.362Z,6.6
2022-12-06T09:47:51.646Z,6.6
2022-12-06T09:48:55.788Z,6.6
2022-12-06T09:50:00.591Z,6.6
2022-12-06T09:51:04.479Z,6.6
2022-12-06T09:52:07.524Z,6.7
2022-12-06T09:53:10.287Z,6.6
2022-12-06T09:54:13.988Z,6.6
2022-12-06T09:55:17.124Z,6.7
2022-12-06T09:56:20.187Z,6.7
2022-12-06T09:57:23.611Z,6.7
2022-12-06T09:58:26.681Z,6.7
2022-12-06T09:59:29.106Z,6.7
2022-12-06T10:00:32.875Z,6.8
2022-12-06T10:01:36.257Z,6.8
2022-12-06T10:02:40.646Z,6.8
2022-12-06T10:03:43.321Z,6.8
2022-12-06T10:04:47.367Z,6.8
2022-12-06T10:05:53.049Z,6.8
2022-12-06T10:06:55.615Z,6.8
2022-12-06T10:07:58.843Z,6.9
2022-12-06T10:09:03.249Z,6.9
2022-12-06T10:10:07.077Z,6.9
2022-12-06T10:11:09.924Z,6.9
2022-12-06T10:12:13.249Z,6.9
2022-12-06T10:13:16.671Z,6.9
2022-12-06T10:14:19.511Z,7
2022-12-06T10:15:22.858Z,7
2022-12-06T10:16:26.377Z,7
2022-12-06T10:17:29.997Z,7
2022-12-06T10:18:33.363Z,7
2022-12-06T10:19:35.946Z,7
2022-12-06T10:20:40.012Z,7.1
2022-12-06T10:21:42.719Z,7
2022-12-06T10:22:45.770Z,7.1
2022-12-06T10:23:49.038Z,7.1
2022-12-06T10:24:52.267Z,7.1
2022-12-06T10:25:55.275Z,7.1
2022-12-06T10:26:58.248Z,7.1
2022-12-06T10:28:01.379Z,7.1
2022-12-06T10:29:04.425Z,7.1
2022-12-06T10:30:07.473Z,7.1
2022-12-06T10:31:10.994Z,7.1
2022-12-06T10:32:14.349Z,7.1
2022-12-06T10:33:17.514Z,7.1
2022-12-06T10:34:21.163Z,7.1
2022-12-06T10:35:24.356Z,7.1
2022-12-06T10:36:27.987Z,7.1
2022-12-06T10:37:30.724Z,7.1
2022-12-06T10:38:33.496Z,7.1
2022-12-06T10:39:36.846Z,7.1
2022-12-06T10:40:39.419Z,7.1
2022-12-06T10:41:42.397Z,7.1
2022-12-06T10:42:45.126Z,7.1
2022-12-06T10:43:48.559Z,7.2
2022-12-06T10:44:51.613Z,7.2
2022-12-06T10:45:54.755Z,7.2
2022-12-06T10:46:58.821Z,7.2
2022-12-06T10:48:02.964Z,7.2
2022-12-06T10:49:05.737Z,7.2
2022-12-06T10:50:08.744Z,7.2
2022-12-06T10:51:11.647Z,7.3
2022-12-06T10:52:15.428Z,7.3
2022-12-06T10:53:18.241Z,7.3
2022-12-06T10:54:22.307Z,7.3
2022-12-06T10:55:26.580Z,7.3
2022-12-06T10:56:29.642Z,7.3
2022-12-06T10:57:32.501Z,7.3
2022-12-06T10:58:35.554Z,7.4
2022-12-06T10:59:38.713Z,7.4
2022-12-06T11:00:41.604Z,7.4
2022-12-06T11:01:45.216Z,7.4
2022-12-06T11:02:48.010Z,7.4
2022-12-06T11:03:51.062Z,7.4
2022-12-06T11:04:54.759Z,7.5
2022-12-06T11:05:57.869Z,7.5
2022-12-06T11:07:01.526Z,7.5
2022-12-06T11:08:05.398Z,7.5
2022-12-06T11:09:09.376Z,7.5
2022-12-06T11:10:12.974Z,7.5
2022-12-06T11:11:16.077Z,7.5
2022-12-06T11:12:19.443Z,7.5
2022-12-06T11:13:22.236Z,7.5
2022-12-06T11:14:25.026Z,7.6
2022-12-06T11:15:27.535Z,7.6
2022-12-06T11:16:30.502Z,7.6
2022-12-06T11:17:33.707Z,7.6
2022-12-06T11:18:36.488Z,7.6
2022-12-06T11:19:39.820Z,7.7
2022-12-06T11:20:43.859Z,7.7
2022-12-06T11:21:47.295Z,7.7
2022-12-06T11:22:50.571Z,7.7
2022-12-06T11:23:54.608Z,7.7
2022-12-06T11:24:57.500Z,7.8
2022-12-06T11:26:00.626Z,7.8
2022-12-06T11:27:03.228Z,7.9
2022-12-06T11:28:06.011Z,7.9
2022-12-06T11:29:09.136Z,7.9
2022-12-06T11:30:20.878Z,8
2022-12-06T11:31:24.863Z,8
2022-12-06T11:32:28.252Z,8.1
2022-12-06T11:33:31.604Z,8.1
2022-12-06T11:34:34.794Z,8.2
2022-12-06T11:35:37.494Z,8.2
2022-12-06T11:36:40.189Z,8.3
2022-12-06T11:37:45.662Z,8.3
2022-12-06T11:38:48.753Z,8.3
2022-12-06T11:39:52.862Z,8.3
2022-12-06T11:40:55.643Z,8.3
2022-12-06T11:41:59.012Z,8.4
2022-12-06T11:43:02.647Z,8.4
2022-12-06T11:44:06.064Z,8.4
2022-12-06T11:45:08.955Z,8.4
2022-12-06T11:46:11.809Z,8.3
2022-12-06T11:47:14.751Z,8.4
2022-12-06T11:48:17.620Z,8.4
2022-12-06T11:49:20.986Z,8.4
2022-12-06T11:50:23.684Z,8.4
2022-12-06T11:51:26.743Z,8.4
2022-12-06T11:52:29.854Z,8.4
2022-12-06T11:53:33.873Z,8.4
2022-12-06T11:54:37.258Z,8.4
2022-12-06T11:55:41.084Z,8.4
2022-12-06T11:56:44.638Z,8.3
2022-12-06T11:57:47.495Z,8.3
2022-12-06T11:58:50.475Z,8.3
2022-12-06T11:59:52.896Z,8.3
2022-12-06T12:00:56.951Z,8.3
2022-12-06T12:02:00.256Z,8.3
2022-12-06T12:03:04.117Z,8.3
2022-12-06T12:04:07.835Z,8.3
2022-12-06T12:05:10.987Z,8.3
2022-12-06T12:06:13.849Z,8.3
2022-12-06T12:07:17.206Z,8.3
2022-12-06T12:08:20.273Z,8.3
2022-12-06T12:09:24.091Z,8.3
2022-12-06T12:10:27.223Z,8.3
2022-12-06T12:11:31.039Z,8.3
2022-12-06T12:12:34.580Z,8.3
2022-12-06T12:13:37.659Z,8.3
2022-12-06T12:14:41.782Z,8.3
2022-12-06T12:15:53.702Z,8.3
2022-12-06T12:16:57.384Z,8.3
2022-12-06T12:18:00.575Z,8.3
2022-12-06T12:19:03.631Z,8.3
2022-12-06T12:20:06.648Z,8.3
2022-12-06T12:21:09.356Z,8.3
2022-12-06T12:22:11.925Z,8.3
2022-12-06T12:23:14.913Z,8.3
2022-12-06T12:24:18.238Z,8.3
2022-12-06T12:25:23.006Z,8.3
2022-12-06T12:26:27.128Z,8.2
2022-12-06T12:27:30.685Z,8.3
2022-12-06T12:28:34.408Z,8.2
2022-12-06T12:29:37.496Z,8.2
2022-12-06T12:30:40.300Z,8.2
2022-12-06T12:31:44.065Z,8.2
2022-12-06T12:32:47.889Z,8.2
2022-12-06T12:33:50.684Z,8.2
2022-12-06T12:34:54.102Z,8.2
2022-12-06T12:35:57.259Z,8.2
2022-12-06T12:37:00.438Z,8.2
2022-12-06T12:38:03.209Z,8.2
2022-12-06T12:39:05.980Z,8.2
2022-12-06T12:40:11.541Z,8.2
2022-12-06T12:41:15.014Z,8.1
2022-12-06T12:42:18.004Z,8.1
2022-12-06T12:43:22.155Z,8.2
2022-12-06T12:44:41.338Z,8.2
2022-12-06T12:45:44.570Z,8.2
2022-12-06T12:46:48.465Z,8.2
2022-12-06T12:47:51.559Z,8.2
2022-12-06T12:48:54.685Z,8.2
2022-12-06T12:49:57.267Z,8.2
2022-12-06T12:51:00.686Z,8.1
2022-12-06T12:52:03.669Z,8.2
2022-12-06T12:53:07.155Z,8.2
2022-12-06T12:54:09.712Z,8.2
2022-12-06T12:55:12.681Z,8.2
2022-12-06T12:56:15.108Z,8.2
2022-12-06T12:57:17.922Z,8.2
2022-12-06T12:58:21.572Z,8.2
2022-12-06T12:59:25.129Z,8.2
2022-12-06T13:00:28.426Z,8.2
2022-12-06T13:01:31.944Z,8.2
2022-12-06T13:02:35.889Z,8.2
2022-12-06T13:03:54.334Z,8.1
2022-12-06T13:05:35.110Z,8.1
2022-12-06T13:06:51.034Z,8.1
2022-12-06T13:07:54.591Z,8.1
2022-12-06T13:08:57.954Z,8.1
2022-12-06T13:10:01.284Z,8.1
2022-12-06T13:11:04.606Z,8.1
2022-12-06T13:12:07.821Z,8.1
2022-12-06T13:13:10.938Z,8.1
2022-12-06T13:14:14.024Z,8.1
2022-12-06T13:15:17.853Z,8.1
2022-12-06T13:16:21.171Z,8
2022-12-06T13:17:24.546Z,8
2022-12-06T13:18:27.620Z,8
2022-12-06T13:19:30.424Z,8
2022-12-06T13:20:33.301Z,8
2022-12-06T13:21:36.072Z,8
2022-12-06T13:22:39.437Z,8
2022-12-06T13:23:41.943Z,8
2022-12-06T13:24:45.569Z,8
2022-12-06T13:25:48.894Z,8
2022-12-06T13:26:51.950Z,8
2022-12-06T13:27:54.722Z,8
2022-12-06T13:29:01.947Z,8
2022-12-06T13:30:05.389Z,8
2022-12-06T13:31:09.472Z,8
2022-12-06T13:32:12.761Z,8
2022-12-06T13:33:21.853Z,8
2022-12-06T13:34:25.292Z,8
2022-12-06T13:35:28.070Z,8
2022-12-06T13:36:31.788Z,8
2022-12-06T13:37:34.288Z,8
2022-12-06T13:38:36.886Z,8
2022-12-06T13:39:40.203Z,8
2022-12-06T13:40:43.172Z,8
2022-12-06T13:41:45.938Z,8
2022-12-06T13:42:49.306Z,8
2022-12-06T13:43:52.545Z,8
2022-12-06T13:44:55.992Z,8
2022-12-06T13:45:59.294Z,8
2022-12-06T13:47:03.438Z,8
2022-12-06T13:48:06.793Z,8
2022-12-06T13:49:09.851Z,8
2022-12-06T13:50:12.994Z,8
2022-12-06T13:51:15.771Z,8
2022-12-06T13:52:18.746Z,8
2022-12-06T13:53:21.723Z,8.1
2022-12-06T13:54:25.434Z,8.1
2022-12-06T13:55:28.760Z,8.1
2022-12-06T13:56:31.878Z,8.1
2022-12-06T13:57:35.389Z,8.1
2022-12-06T13:58:38.789Z,8.1
2022-12-06T13:59:41.622Z,8.1
2022-12-06T14:00:45.057Z,8.1
2022-12-06T14:01:48.748Z,8.1
2022-12-06T14:02:53.143Z,8.1
2022-12-06T14:03:56.900Z,8.1
2022-12-06T14:05:01.527Z,8
2022-12-06T14:06:16.410Z,8
2022-12-06T14:07:19.472Z,8
2022-12-06T14:08:23.200Z,8
2022-12-06T14:09:27.219Z,8
2022-12-06T14:10:30.371Z,7.9
2022-12-06T14:11:40.586Z,7.9
2022-12-06T14:12:43.291Z,7.9
2022-12-06T14:13:46.442Z,7.9
2022-12-06T14:14:50.152Z,7.9
2022-12-06T14:15:53.279Z,7.9
2022-12-06T14:16:55.932Z,7.9
2022-12-06T14:18:13.367Z,7.9
2022-12-06T14:19:17.237Z,7.9
2022-12-06T14:20:19.752Z,7.8
2022-12-06T14:21:22.187Z,7.9
2022-12-06T14:22:25.555Z,7.8
2022-12-06T14:23:29.020Z,7.9
2022-12-06T14:24:32.655Z,7.8
2022-12-06T14:25:35.388Z,7.8
2022-12-06T14:26:39.115Z,7.8
2022-12-06T14:27:42.447Z,7.8
2022-12-06T14:28:45.223Z,7.8
2022-12-06T14:29:47.711Z,7.8
2022-12-06T14:30:51.489Z,7.8
2022-12-06T14:31:54.894Z,7.8
2022-12-06T14:32:58.243Z,7.8
2022-12-06T14:34:01.780Z,7.8
2022-12-06T14:35:04.884Z,7.8
2022-12-06T14:36:16.956Z,7.8
2022-12-06T14:37:20.195Z,7.8
2022-12-06T14:38:23.904Z,7.8